Venetian Village, Illinois
Current Conditions -  °F | °C
As of 5:55 AM on Saturday 25 Oct 2014 (Local Time) from KUGN Reporting Station
Haze Haze  
Wind Chill: 55°   Ceiling: Unl
Heat Index: 55°   Visibility: 5mi
Dew Point: 53°   Wind: 6mph
Humidity: 93%   Direction: NA
Pressure: 29.87"   Gusts: NA
Location:  42.4132°N, 88.0615°W
Report Text: KUGN 251055Z VRB05KT 5SM BR CLR 13/12 A2987 RMK AO2 SLP116 T01280117
Loading
Personal Weather Stations






























Interactive Weather Map
Tropical Storm Tracking
New forecast layout! Learn more

10-Day Weather Forecast

Advertisements
Track Severe Weather on mobile